Time,TemperatureF,DewpointF,PressureIn,WindDirection,WindDirectionDegrees,WindSpeedMPH,WindSpeedGustMPH,Humidity,HourlyPrecipIn,Conditions,Clouds,dailyrainin,SoftwareType,DateUTC
2017-11-24 00:00:00,31.1,26.0,29.24,WSW,253,0.0,0.0,81,0.00,CLR,CLR,0.00,WeatherDisplay:10.37,2017-11-24 05:00:00,
2017-11-24 00:05:00,30.9,25.8,29.24,WSW,253,0.0,0.0,81,0.00,CLR,CLR,0.00,WeatherDisplay:10.37,2017-11-24 05:05:00,
2017-11-24 00:10:00,30.9,25.8,29.24,WSW,253,0.0,0.0,81,0.00,CLR,CLR,0.00,WeatherDisplay:10.37,2017-11-24 05:10:00,
2017-11-24 00:20:00,30.7,25.6,29.24,WSW,253,0.0,0.0,81,0.00,CLR,CLR,0.00,WeatherDisplay:10.37,2017-11-24 05:20:00,
2017-11-24 00:30:00,30.6,25.4,29.24,WSW,253,0.0,0.0,81,0.00,CLR,CLR,0.00,WeatherDisplay:10.37,2017-11-24 05:30:00,
2017-11-24 00:50:00,30.4,26.1,29.24,WSW,253,0.0,0.0,84,0.00,CLR,CLR,0.00,WeatherDisplay:10.37,2017-11-24 05:50:00,
2017-11-24 01:00:00,30.2,25.9,29.24,WSW,253,0.0,0.0,84,0.00,CLR,CLR,0.00,WeatherDisplay:10.37,2017-11-24 06:00:00,
2017-11-24 01:05:00,30.2,25.9,29.24,WSW,253,0.0,0.0,84,0.00,CLR,CLR,0.00,WeatherDisplay:10.37,2017-11-24 06:05:00,
2017-11-24 01:10:00,30.2,25.9,29.24,WSW,253,0.0,0.0,84,0.00,CLR,CLR,0.00,WeatherDisplay:10.37,2017-11-24 06:10:00,
2017-11-24 01:20:00,30.2,25.9,29.24,WSW,253,0.0,0.0,84,0.00,CLR,CLR,0.00,WeatherDisplay:10.37,2017-11-24 06:20:00,
2017-11-24 01:40:00,29.8,25.6,29.24,WSW,253,0.0,0.0,84,0.00,CLR,CLR,0.00,WeatherDisplay:10.37,2017-11-24 06:40:00,
2017-11-24 01:50:00,29.7,26.0,29.24,WSW,253,0.0,0.0,86,0.00,CLR,CLR,0.00,WeatherDisplay:10.37,2017-11-24 06:50:00,
2017-11-24 02:00:00,29.6,25.9,29.24,WSW,253,0.0,0.0,86,0.00,CLR,CLR,0.00,WeatherDisplay:10.37,2017-11-24 07:00:00,
2017-11-24 02:10:00,29.5,25.8,29.24,WSW,253,0.0,0.0,86,0.00,CLR,CLR,0.00,WeatherDisplay:10.37,2017-11-24 07:10:00,
2017-11-24 02:30:00,29.5,26.1,29.24,WSW,253,0.0,0.0,87,0.00,CLR,CLR,0.00,WeatherDisplay:10.37,2017-11-24 07:30:00,
2017-11-24 02:40:00,29.5,26.1,29.24,WSW,253,0.0,0.0,87,0.00,CLR,CLR,0.00,WeatherDisplay:10.37,2017-11-24 07:40:00,
2017-11-24 02:45:00,29.5,26.1,29.24,WSW,253,0.0,0.0,87,0.00,CLR,CLR,0.00,WeatherDisplay:10.37,2017-11-24 07:45:00,
2017-11-24 02:50:00,29.7,26.3,29.24,WSW,253,0.0,0.0,87,0.00,CLR,CLR,0.00,WeatherDisplay:10.37,2017-11-24 07:50:00,
2017-11-24 03:05:00,30.1,26.7,29.24,WSW,253,0.0,0.0,87,0.00,CLR,CLR,0.00,WeatherDisplay:10.37,2017-11-24 08:05:00,
2017-11-24 03:10:00,30.0,26.6,29.24,WSW,253,0.0,0.0,87,0.00,CLR,CLR,0.00,WeatherDisplay:10.37,2017-11-24 08:10:00,
2017-11-24 03:20:00,30.2,26.8,29.24,WSW,253,0.0,0.0,87,0.00,CLR,CLR,0.00,WeatherDisplay:10.37,2017-11-24 08:20:00,
2017-11-24 03:30:00,30.2,26.8,29.24,WSW,253,0.0,0.0,87,0.00,CLR,CLR,0.00,WeatherDisplay:10.37,2017-11-24 08:30:00,
2017-11-24 03:40:00,30.2,26.8,29.24,WSW,253,0.0,0.0,87,0.00,CLR,CLR,0.00,WeatherDisplay:10.37,2017-11-24 08:40:00,
2017-11-24 03:50:00,30.5,27.1,29.24,WSW,253,0.0,0.0,87,0.00,CLR,CLR,0.00,WeatherDisplay:10.37,2017-11-24 08:50:00,
2017-11-24 04:00:00,30.7,27.3,29.24,WSW,253,0.0,0.0,87,0.00,CLR,CLR,0.00,WeatherDisplay:10.37,2017-11-24 09:00:00,
2017-11-24 04:05:00,30.7,27.3,29.24,WSW,253,0.0,0.0,87,0.00,CLR,CLR,0.00,WeatherDisplay:10.37,2017-11-24 09:05:00,
2017-11-24 04:10:00,30.6,27.2,29.24,WSW,253,0.0,0.0,87,0.00,CLR,CLR,0.00,WeatherDisplay:10.37,2017-11-24 09:10:00,
2017-11-24 04:15:00,30.4,27.0,29.24,WSW,253,0.0,0.0,87,0.00,CLR,CLR,0.00,WeatherDisplay:10.37,2017-11-24 09:15:00,
2017-11-24 04:20:00,30.1,26.7,29.24,WSW,253,0.0,0.0,87,0.00,CLR,CLR,0.00,WeatherDisplay:10.37,2017-11-24 09:20:00,
2017-11-24 04:30:00,29.8,26.4,29.24,WSW,253,0.0,0.0,87,0.00,CLR,CLR,0.00,WeatherDisplay:10.37,2017-11-24 09:30:00,
2017-11-24 04:45:00,29.5,26.1,29.24,WSW,253,0.0,0.0,87,0.00,CLR,CLR,0.00,WeatherDisplay:10.37,2017-11-24 09:45:00,
2017-11-24 04:50:00,29.5,26.1,29.24,WSW,253,0.0,0.0,87,0.00,CLR,CLR,0.00,WeatherDisplay:10.37,2017-11-24 09:50:00,
2017-11-24 04:55:00,29.5,26.1,29.24,WSW,253,0.0,0.0,87,0.00,CLR,CLR,0.00,WeatherDisplay:10.37,2017-11-24 09:55:00,
2017-11-24 05:00:00,29.5,26.1,29.24,WSW,253,0.0,0.0,87,0.00,CLR,CLR,0.00,WeatherDisplay:10.37,2017-11-24 10:00:00,
2017-11-24 05:05:00,29.7,26.3,29.24,WSW,253,0.0,0.0,87,0.00,CLR,CLR,0.00,WeatherDisplay:10.37,2017-11-24 10:05:00,
2017-11-24 05:10:00,29.8,26.4,29.24,WSW,253,0.0,0.0,87,0.00,CLR,CLR,0.00,WeatherDisplay:10.37,2017-11-24 10:10:00,
2017-11-24 05:20:00,29.5,26.1,29.24,WSW,253,0.0,0.0,87,0.00,CLR,CLR,0.00,WeatherDisplay:10.37,2017-11-24 10:20:00,
2017-11-24 05:25:00,29.7,26.5,29.24,WSW,253,0.0,0.0,88,0.00,CLR,CLR,0.00,WeatherDisplay:10.37,2017-11-24 10:25:00,
2017-11-24 05:30:00,29.7,26.5,29.24,WSW,253,0.0,0.0,88,0.00,CLR,CLR,0.00,WeatherDisplay:10.37,2017-11-24 10:30:00,
2017-11-24 05:35:00,29.8,26.7,29.24,WSW,253,0.0,0.0,88,0.00,CLR,CLR,0.00,WeatherDisplay:10.37,2017-11-24 10:35:00,
2017-11-24 05:40:00,29.8,26.7,29.24,WSW,253,0.0,0.0,88,0.00,CLR,CLR,0.00,WeatherDisplay:10.37,2017-11-24 10:40:00,
2017-11-24 05:45:00,29.8,26.7,29.24,WSW,253,0.0,0.0,88,0.00,CLR,CLR,0.00,WeatherDisplay:10.37,2017-11-24 10:45:00,
2017-11-24 05:50:00,30.0,26.9,29.24,WSW,253,0.0,0.0,88,0.00,CLR,CLR,0.00,WeatherDisplay:10.37,2017-11-24 10:50:00,
2017-11-24 06:00:00,30.2,27.1,29.24,WSW,253,0.0,0.0,88,0.00,CLR,CLR,0.00,WeatherDisplay:10.37,2017-11-24 11:00:00,
2017-11-24 06:05:00,30.2,27.1,29.24,WSW,253,0.0,0.0,88,0.00,CLR,CLR,0.00,WeatherDisplay:10.37,2017-11-24 11:05:00,
2017-11-24 06:10:00,30.2,27.1,29.24,WSW,253,0.0,0.0,88,0.00,CLR,CLR,0.00,WeatherDisplay:10.37,2017-11-24 11:10:00,
2017-11-24 06:20:00,30.0,26.9,29.24,WSW,253,0.0,0.0,88,0.00,CLR,CLR,0.00,WeatherDisplay:10.37,2017-11-24 11:20:00,
2017-11-24 06:30:00,29.8,26.7,29.24,WSW,253,0.0,0.0,88,0.00,CLR,CLR,0.00,WeatherDisplay:10.37,2017-11-24 11:30:00,
2017-11-24 06:40:00,29.7,26.5,29.24,WSW,253,0.0,0.0,88,0.00,CLR,CLR,0.00,WeatherDisplay:10.37,2017-11-24 11:40:00,
2017-11-24 06:45:00,29.5,26.4,29.24,WSW,253,0.0,0.0,88,0.00,CLR,CLR,0.00,WeatherDisplay:10.37,2017-11-24 11:45:00,
2017-11-24 06:50:00,29.5,26.4,29.24,WSW,253,0.0,0.0,88,0.00,CLR,CLR,0.00,WeatherDisplay:10.37,2017-11-24 11:50:00,
2017-11-24 07:00:00,29.7,26.5,29.24,WSW,253,0.0,0.0,88,0.00,CLR,CLR,0.00,WeatherDisplay:10.37,2017-11-24 12:00:00,
2017-11-24 07:05:00,29.5,26.4,29.24,WSW,253,0.0,0.0,88,0.00,CLR,CLR,0.00,WeatherDisplay:10.37,2017-11-24 12:05:00,
2017-11-24 07:10:00,29.8,26.7,29.24,WSW,253,0.0,0.0,88,0.00,CLR,CLR,0.00,WeatherDisplay:10.37,2017-11-24 12:10:00,
2017-11-24 07:20:00,29.8,26.7,29.24,WSW,253,0.0,0.0,88,0.00,CLR,CLR,0.00,WeatherDisplay:10.37,2017-11-24 12:20:00,
2017-11-24 07:30:00,30.4,27.3,29.24,WSW,253,0.0,0.0,88,0.00,CLR,CLR,0.00,WeatherDisplay:10.37,2017-11-24 12:30:00,
2017-11-24 07:40:00,30.7,27.3,29.24,WSW,253,0.0,0.0,87,0.00,CLR,CLR,0.00,WeatherDisplay:10.37,2017-11-24 12:40:00,
2017-11-24 07:50:00,31.1,27.7,29.24,WSW,253,0.0,0.0,87,0.00,CLR,CLR,0.00,WeatherDisplay:10.37,2017-11-24 12:50:00,
2017-11-24 08:00:00,31.5,28.0,29.24,WSW,253,0.0,0.0,87,0.00,CLR,CLR,0.00,WeatherDisplay:10.37,2017-11-24 13:00:00,
2017-11-24 08:05:00,31.5,28.1,29.24,WSW,253,0.0,0.0,87,0.00,CLR,CLR,0.00,WeatherDisplay:10.37,2017-11-24 13:05:00,
2017-11-24 08:10:00,31.8,28.4,29.24,WSW,253,0.0,0.0,87,0.00,CLR,CLR,0.00,WeatherDisplay:10.37,2017-11-24 13:10:00,
2017-11-24 08:20:00,32.2,28.5,29.24,WSW,253,0.0,0.0,86,0.00,CLR,CLR,0.00,WeatherDisplay:10.37,2017-11-24 13:20:00,
2017-11-24 08:25:00,32.5,28.8,29.24,WSW,253,0.0,0.0,86,0.00,CLR,CLR,0.00,WeatherDisplay:10.37,2017-11-24 13:25:00,
2017-11-24 08:30:00,32.6,28.9,29.24,WSW,253,0.0,0.0,86,0.00,CLR,CLR,0.00,WeatherDisplay:10.37,2017-11-24 13:30:00,
2017-11-24 08:40:00,33.6,29.9,29.24,WSW,253,0.0,0.0,86,0.00,CLR,CLR,0.00,WeatherDisplay:10.37,2017-11-24 13:40:00,
2017-11-24 08:55:00,34.5,29.3,29.24,WSW,253,0.0,0.0,81,0.00,CLR,CLR,0.00,WeatherDisplay:10.37,2017-11-24 13:55:00,
2017-11-24 09:00:00,34.9,29.6,29.24,WSW,253,0.0,0.0,81,0.00,CLR,CLR,0.00,WeatherDisplay:10.37,2017-11-24 14:00:00,
2017-11-24 09:05:00,35.1,29.0,29.24,WSW,253,0.0,0.0,78,0.00,CLR,CLR,0.00,WeatherDisplay:10.37,2017-11-24 14:05:00,
2017-11-24 09:10:00,35.5,29.3,29.24,WSW,253,0.0,0.0,78,0.00,CLR,CLR,0.00,WeatherDisplay:10.37,2017-11-24 14:10:00,